SHT13C EGNT-EGLL
Flight info
| Callsign | SHT13C |
|---|---|
| Flight time | 0h 40m |
| Altitude | 27000 |
| Route | GIRLI P18 GASKO P16 RIBEL UP16 CROFT DCT NUGRA |
| Aircraft | A319/M-SDE3FGHIRWY/LB1 |
Departure
| Time | 2026-05-06 05:58 |
|---|---|
| Airport | Newcastle International Airport (EGNT) |
Arrival
| Time | 2026-05-06 06:39 |
|---|---|
| Airport | London Heathrow Airport (EGLL) |
| Time | Latitude | Longitude | Altitude | Speed | Heading |
|---|---|---|---|---|---|
| 2026-05-06 05:35 | 55.03740 | -1.70761 | 266 ft | 0 kts | 184° |
| 2026-05-06 05:53 | 55.03741 | -1.70761 | 266 ft | 2 kts | 184° |
| 2026-05-06 05:53 | 55.03748 | -1.70757 | 266 ft | 1 kts | 185° |
| 2026-05-06 05:53 | 55.03763 | -1.70755 | 267 ft | 3 kts | 185° |
| 2026-05-06 05:54 | 55.03782 | -1.70753 | 267 ft | 3 kts | 184° |
| 2026-05-06 05:54 | 55.03799 | -1.70757 | 267 ft | 2 kts | 117° |
| 2026-05-06 05:54 | 55.03801 | -1.70765 | 267 ft | 1 kts | 98° |
| 2026-05-06 05:54 | 55.03801 | -1.70763 | 267 ft | 0 kts | 98° |
| 2026-05-06 05:55 | 55.03802 | -1.70759 | 267 ft | 1 kts | 84° |
| 2026-05-06 05:56 | 55.03806 | -1.70692 | 267 ft | 10 kts | 90° |
| 2026-05-06 05:56 | 55.03801 | -1.70547 | 266 ft | 12 kts | 95° |
| 2026-05-06 05:56 | 55.03747 | -1.70434 | 264 ft | 17 kts | 176° |
| 2026-05-06 05:56 | 55.03633 | -1.70447 | 262 ft | 17 kts | 197° |
| 2026-05-06 05:57 | 55.03567 | -1.70622 | 264 ft | 19 kts | 217° |
| 2026-05-06 05:57 | 55.03452 | -1.70647 | 264 ft | 10 kts | 182° |
| 2026-05-06 05:57 | 55.03375 | -1.70621 | 267 ft | 11 kts | 128° |
| 2026-05-06 05:57 | 55.03392 | -1.70495 | 266 ft | 9 kts | 65° |
| 2026-05-06 05:58 | 55.03399 | -1.70467 | 265 ft | 12 kts | 65° |
| 2026-05-06 05:58 | 55.03559 | -1.69864 | 266 ft | 95 kts | 65° |
| 2026-05-06 05:58 | 55.03933 | -1.68452 | 449 ft | 143 kts | 64° |
| 2026-05-06 05:58 | 55.04345 | -1.66880 | 1360 ft | 143 kts | 64° |
| 2026-05-06 05:59 | 55.04778 | -1.65259 | 2143 ft | 157 kts | 63° |
| 2026-05-06 05:59 | 55.05250 | -1.63340 | 2735 ft | 188 kts | 65° |
| 2026-05-06 05:59 | 55.05809 | -1.61117 | 3612 ft | 209 kts | 64° |
| 2026-05-06 05:59 | 55.06092 | -1.58542 | 4756 ft | 225 kts | 90° |
| 2026-05-06 06:00 | 55.05677 | -1.55941 | 5603 ft | 228 kts | 118° |
| 2026-05-06 06:00 | 55.04501 | -1.53898 | 6274 ft | 259 kts | 147° |
| 2026-05-06 06:00 | 55.02687 | -1.52995 | 7106 ft | 284 kts | 175° |
| 2026-05-06 06:00 | 55.00702 | -1.52908 | 8371 ft | 288 kts | 181° |
| 2026-05-06 06:01 | 54.98686 | -1.53101 | 9661 ft | 291 kts | 189° |
| 2026-05-06 06:01 | 54.96737 | -1.54072 | 10798 ft | 293 kts | 206° |
| 2026-05-06 06:01 | 54.94857 | -1.55682 | 11571 ft | 313 kts | 204° |
| 2026-05-06 06:01 | 54.92656 | -1.56175 | 12422 ft | 330 kts | 175° |
| 2026-05-06 06:02 | 54.90392 | -1.55428 | 13535 ft | 333 kts | 169° |
| 2026-05-06 06:02 | 54.88115 | -1.54534 | 14536 ft | 338 kts | 169° |
| 2026-05-06 06:02 | 54.85808 | -1.53617 | 15476 ft | 342 kts | 169° |
| 2026-05-06 06:02 | 54.83467 | -1.52735 | 16424 ft | 346 kts | 171° |
| 2026-05-06 06:03 | 54.81070 | -1.51998 | 17127 ft | 359 kts | 173° |
| 2026-05-06 06:03 | 54.78520 | -1.51354 | 17431 ft | 380 kts | 174° |
| 2026-05-06 06:03 | 54.75834 | -1.50741 | 17859 ft | 397 kts | 175° |
| 2026-05-06 06:03 | 54.73063 | -1.50119 | 18472 ft | 407 kts | 175° |
| 2026-05-06 06:04 | 54.70230 | -1.49465 | 19080 ft | 414 kts | 174° |
| 2026-05-06 06:04 | 54.67363 | -1.48777 | 19696 ft | 420 kts | 174° |
| 2026-05-06 06:04 | 54.64448 | -1.48059 | 20327 ft | 425 kts | 174° |
| 2026-05-06 06:04 | 54.61511 | -1.47327 | 20971 ft | 428 kts | 174° |
| 2026-05-06 06:05 | 54.58556 | -1.46586 | 21624 ft | 430 kts | 174° |
| 2026-05-06 06:05 | 54.55587 | -1.45846 | 22298 ft | 432 kts | 174° |
| 2026-05-06 06:05 | 54.52606 | -1.45107 | 22982 ft | 433 kts | 174° |
| 2026-05-06 06:05 | 54.49619 | -1.44369 | 23680 ft | 434 kts | 174° |
| 2026-05-06 06:06 | 54.46632 | -1.43634 | 24254 ft | 435 kts | 174° |
| 2026-05-06 06:06 | 54.43633 | -1.42895 | 24856 ft | 436 kts | 174° |
| 2026-05-06 06:06 | 54.40629 | -1.42154 | 25470 ft | 436 kts | 174° |
| 2026-05-06 06:06 | 54.37623 | -1.41413 | 26097 ft | 437 kts | 174° |
| 2026-05-06 06:07 | 54.34620 | -1.40676 | 26731 ft | 436 kts | 174° |
| 2026-05-06 06:07 | 54.31617 | -1.39671 | 27013 ft | 445 kts | 169° |
| 2026-05-06 06:07 | 54.28577 | -1.38347 | 27083 ft | 457 kts | 168° |
| 2026-05-06 06:07 | 54.25464 | -1.36931 | 27086 ft | 469 kts | 167° |
| 2026-05-06 06:08 | 54.22277 | -1.35445 | 27074 ft | 479 kts | 167° |
| 2026-05-06 06:08 | 54.19045 | -1.33923 | 27085 ft | 483 kts | 167° |
| 2026-05-06 06:08 | 54.15796 | -1.32400 | 27084 ft | 485 kts | 167° |
| 2026-05-06 06:08 | 54.12541 | -1.30885 | 27066 ft | 485 kts | 167° |
| 2026-05-06 06:09 | 54.09285 | -1.29382 | 27064 ft | 485 kts | 167° |
| 2026-05-06 06:09 | 54.06023 | -1.27890 | 27063 ft | 485 kts | 167° |
| 2026-05-06 06:09 | 54.02761 | -1.26406 | 27063 ft | 485 kts | 167° |
| 2026-05-06 06:09 | 53.99505 | -1.24928 | 27059 ft | 485 kts | 167° |
| 2026-05-06 06:10 | 53.96238 | -1.23448 | 27049 ft | 485 kts | 167° |
| 2026-05-06 06:10 | 53.92980 | -1.21976 | 27047 ft | 485 kts | 167° |
| 2026-05-06 06:10 | 53.89718 | -1.20501 | 27045 ft | 485 kts | 167° |
| 2026-05-06 06:10 | 53.86458 | -1.19027 | 27042 ft | 485 kts | 167° |
| 2026-05-06 06:11 | 53.83203 | -1.17557 | 27035 ft | 484 kts | 167° |
| 2026-05-06 06:11 | 53.79942 | -1.16090 | 27034 ft | 484 kts | 167° |
| 2026-05-06 06:11 | 53.76685 | -1.14633 | 27033 ft | 484 kts | 167° |
| 2026-05-06 06:11 | 53.73428 | -1.13181 | 27026 ft | 484 kts | 167° |
| 2026-05-06 06:12 | 53.70210 | -1.11750 | 27017 ft | 484 kts | 167° |
| 2026-05-06 06:12 | 53.66953 | -1.10301 | 27021 ft | 485 kts | 167° |
| 2026-05-06 06:12 | 53.63689 | -1.08842 | 27024 ft | 485 kts | 167° |
| 2026-05-06 06:12 | 53.60429 | -1.07385 | 27026 ft | 485 kts | 167° |
| 2026-05-06 06:13 | 53.57166 | -1.05926 | 27029 ft | 485 kts | 167° |
| 2026-05-06 06:13 | 53.53905 | -1.04469 | 27032 ft | 485 kts | 167° |
| 2026-05-06 06:13 | 53.50643 | -1.03016 | 27017 ft | 485 kts | 167° |
| 2026-05-06 06:13 | 53.47379 | -1.01562 | 27028 ft | 485 kts | 167° |
| 2026-05-06 06:14 | 53.44122 | -1.00116 | 27038 ft | 485 kts | 167° |
| 2026-05-06 06:14 | 53.40859 | -0.98676 | 27043 ft | 484 kts | 167° |
| 2026-05-06 06:14 | 53.37606 | -0.97244 | 27044 ft | 484 kts | 167° |
| 2026-05-06 06:14 | 53.34348 | -0.95809 | 27039 ft | 483 kts | 167° |
| 2026-05-06 06:15 | 53.31092 | -0.94377 | 27036 ft | 483 kts | 167° |
| 2026-05-06 06:15 | 53.27843 | -0.92952 | 27029 ft | 483 kts | 167° |
| 2026-05-06 06:15 | 53.24593 | -0.91535 | 27008 ft | 483 kts | 167° |
| 2026-05-06 06:15 | 53.21342 | -0.90116 | 27009 ft | 483 kts | 167° |
| 2026-05-06 06:16 | 53.18092 | -0.88693 | 27013 ft | 482 kts | 167° |
| 2026-05-06 06:16 | 53.14851 | -0.87275 | 27012 ft | 482 kts | 167° |
| 2026-05-06 06:16 | 53.11601 | -0.85861 | 27013 ft | 482 kts | 167° |
| 2026-05-06 06:16 | 53.08357 | -0.84453 | 27013 ft | 482 kts | 167° |
| 2026-05-06 06:17 | 53.05110 | -0.83048 | 27012 ft | 482 kts | 167° |
| 2026-05-06 06:17 | 53.01866 | -0.81646 | 27009 ft | 482 kts | 167° |
| 2026-05-06 06:17 | 52.98617 | -0.80243 | 26997 ft | 482 kts | 167° |
| 2026-05-06 06:17 | 52.95415 | -0.78856 | 27001 ft | 482 kts | 167° |
| 2026-05-06 06:18 | 52.92174 | -0.77449 | 27000 ft | 482 kts | 167° |
| 2026-05-06 06:18 | 52.88933 | -0.76047 | 27004 ft | 482 kts | 167° |
| 2026-05-06 06:18 | 52.85686 | -0.74648 | 27004 ft | 482 kts | 167° |
| 2026-05-06 06:18 | 52.82469 | -0.73268 | 26270 ft | 474 kts | 167° |
| 2026-05-06 06:19 | 52.79259 | -0.71896 | 25297 ft | 480 kts | 168° |
| 2026-05-06 06:19 | 52.76006 | -0.70511 | 24787 ft | 485 kts | 167° |
| 2026-05-06 06:19 | 52.72754 | -0.69128 | 24205 ft | 475 kts | 167° |
| 2026-05-06 06:19 | 52.69613 | -0.67783 | 23631 ft | 457 kts | 167° |
| 2026-05-06 06:20 | 52.66591 | -0.66484 | 22991 ft | 442 kts | 167° |
| 2026-05-06 06:20 | 52.63661 | -0.65226 | 22334 ft | 429 kts | 167° |
| 2026-05-06 06:20 | 52.60810 | -0.64005 | 21688 ft | 417 kts | 167° |
| 2026-05-06 06:20 | 52.58038 | -0.62819 | 21062 ft | 407 kts | 167° |
| 2026-05-06 06:21 | 52.55324 | -0.61661 | 20449 ft | 400 kts | 168° |
| 2026-05-06 06:21 | 52.52649 | -0.60528 | 19845 ft | 394 kts | 168° |
| 2026-05-06 06:21 | 52.50015 | -0.59420 | 19247 ft | 388 kts | 168° |
| 2026-05-06 06:21 | 52.47424 | -0.58335 | 18669 ft | 382 kts | 168° |
| 2026-05-06 06:22 | 52.44870 | -0.57265 | 18072 ft | 376 kts | 168° |
| 2026-05-06 06:22 | 52.42359 | -0.56210 | 17420 ft | 370 kts | 167° |
| 2026-05-06 06:22 | 52.39880 | -0.55168 | 16782 ft | 365 kts | 167° |
| 2026-05-06 06:22 | 52.37437 | -0.54143 | 16158 ft | 360 kts | 167° |
| 2026-05-06 06:23 | 52.35027 | -0.53131 | 15543 ft | 356 kts | 167° |
| 2026-05-06 06:23 | 52.32642 | -0.52135 | 14945 ft | 352 kts | 167° |
| 2026-05-06 06:23 | 52.30280 | -0.51152 | 14355 ft | 348 kts | 167° |
| 2026-05-06 06:23 | 52.27973 | -0.50191 | 13776 ft | 345 kts | 166° |
| 2026-05-06 06:24 | 52.25653 | -0.49221 | 13126 ft | 343 kts | 166° |
| 2026-05-06 06:24 | 52.23345 | -0.48253 | 12494 ft | 341 kts | 166° |
| 2026-05-06 06:24 | 52.21053 | -0.47292 | 11873 ft | 339 kts | 166° |
| 2026-05-06 06:24 | 52.18779 | -0.46343 | 11264 ft | 336 kts | 166° |
| 2026-05-06 06:25 | 52.16519 | -0.45401 | 10659 ft | 334 kts | 166° |
| 2026-05-06 06:25 | 52.14243 | -0.44456 | 10070 ft | 332 kts | 166° |
| 2026-05-06 06:25 | 52.09832 | -0.42627 | 8810 ft | 327 kts | 166° |
| 2026-05-06 06:26 | 52.07630 | -0.41716 | 8179 ft | 326 kts | 166° |
| 2026-05-06 06:26 | 52.05438 | -0.40810 | 7561 ft | 324 kts | 166° |
| 2026-05-06 06:26 | 52.03258 | -0.39907 | 6955 ft | 323 kts | 166° |
| 2026-05-06 06:26 | 52.01083 | -0.39007 | 6353 ft | 322 kts | 167° |
| 2026-05-06 06:27 | 51.98920 | -0.38115 | 5724 ft | 321 kts | 166° |
| 2026-05-06 06:27 | 51.96759 | -0.37226 | 5099 ft | 320 kts | 166° |
| 2026-05-06 06:27 | 51.94607 | -0.36340 | 4472 ft | 319 kts | 165° |
| 2026-05-06 06:27 | 51.92464 | -0.35457 | 3841 ft | 317 kts | 165° |
| 2026-05-06 06:28 | 51.90339 | -0.34580 | 3238 ft | 314 kts | 164° |
| 2026-05-06 06:28 | 51.88954 | -0.34009 | 3055 ft | 305 kts | 164° |
| 2026-05-06 06:28 | 51.86953 | -0.33188 | 2990 ft | 286 kts | 164° |
| 2026-05-06 06:28 | 51.85070 | -0.32418 | 3000 ft | 275 kts | 163° |
| 2026-05-06 06:29 | 51.83222 | -0.31659 | 3004 ft | 273 kts | 163° |
| 2026-05-06 06:29 | 51.81383 | -0.30906 | 3004 ft | 272 kts | 163° |
| 2026-05-06 06:29 | 51.79545 | -0.30154 | 3003 ft | 273 kts | 164° |
| 2026-05-06 06:29 | 51.77707 | -0.29404 | 3188 ft | 274 kts | 164° |
| 2026-05-06 06:30 | 51.75865 | -0.28650 | 3445 ft | 275 kts | 164° |
| 2026-05-06 06:30 | 51.74006 | -0.27887 | 3697 ft | 276 kts | 165° |
| 2026-05-06 06:30 | 51.72138 | -0.27122 | 3923 ft | 278 kts | 165° |
| 2026-05-06 06:30 | 51.70257 | -0.26352 | 3993 ft | 279 kts | 165° |
| 2026-05-06 06:31 | 51.68403 | -0.25596 | 4011 ft | 274 kts | 165° |
| 2026-05-06 06:31 | 51.66538 | -0.24837 | 4011 ft | 277 kts | 165° |
| 2026-05-06 06:31 | 51.64664 | -0.24075 | 4006 ft | 278 kts | 165° |
| 2026-05-06 06:31 | 51.62790 | -0.23313 | 4012 ft | 278 kts | 165° |
| 2026-05-06 06:32 | 51.60924 | -0.22558 | 3925 ft | 273 kts | 165° |
| 2026-05-06 06:32 | 51.59116 | -0.21830 | 3792 ft | 262 kts | 165° |
| 2026-05-06 06:32 | 51.57383 | -0.21132 | 3665 ft | 251 kts | 164° |
| 2026-05-06 06:32 | 51.55734 | -0.20467 | 3538 ft | 237 kts | 164° |
| 2026-05-06 06:33 | 51.54174 | -0.19839 | 3392 ft | 225 kts | 164° |
| 2026-05-06 06:33 | 51.52673 | -0.19235 | 3108 ft | 220 kts | 164° |
| 2026-05-06 06:33 | 51.51193 | -0.18779 | 2767 ft | 212 kts | 175° |
| 2026-05-06 06:33 | 51.49766 | -0.19066 | 2760 ft | 205 kts | 195° |
| 2026-05-06 06:34 | 51.48488 | -0.20040 | 2758 ft | 203 kts | 215° |
| 2026-05-06 06:34 | 51.47469 | -0.21578 | 2732 ft | 201 kts | 234° |
| 2026-05-06 06:34 | 51.46797 | -0.23505 | 2579 ft | 193 kts | 253° |
| 2026-05-06 06:34 | 51.46533 | -0.25502 | 2361 ft | 177 kts | 271° |
| 2026-05-06 06:35 | 51.46523 | -0.27428 | 2149 ft | 170 kts | 275° |
| 2026-05-06 06:35 | 51.46521 | -0.29316 | 1911 ft | 169 kts | 275° |
| 2026-05-06 06:35 | 51.46517 | -0.31151 | 1678 ft | 154 kts | 275° |
| 2026-05-06 06:35 | 51.46512 | -0.32736 | 1471 ft | 133 kts | 276° |
| 2026-05-06 06:36 | 51.46511 | -0.34172 | 1294 ft | 125 kts | 276° |
| 2026-05-06 06:36 | 51.46509 | -0.35533 | 1127 ft | 120 kts | 275° |
| 2026-05-06 06:36 | 51.46508 | -0.36871 | 936 ft | 119 kts | 274° |
| 2026-05-06 06:36 | 51.46502 | -0.38185 | 766 ft | 116 kts | 275° |
| 2026-05-06 06:37 | 51.46503 | -0.39477 | 627 ft | 115 kts | 273° |
| 2026-05-06 06:37 | 51.46496 | -0.40763 | 482 ft | 114 kts | 275° |
| 2026-05-06 06:37 | 51.46500 | -0.42021 | 313 ft | 112 kts | 272° |
| 2026-05-06 06:37 | 51.46493 | -0.43273 | 160 ft | 112 kts | 271° |
| 2026-05-06 06:38 | 51.46493 | -0.44453 | 88 ft | 94 kts | 270° |
| 2026-05-06 06:38 | 51.46491 | -0.45305 | 88 ft | 71 kts | 270° |
| 2026-05-06 06:38 | 51.46485 | -0.46133 | 90 ft | 78 kts | 269° |
| 2026-05-06 06:38 | 51.46483 | -0.47044 | 88 ft | 74 kts | 269° |
| 2026-05-06 06:39 | 51.46482 | -0.47510 | 86 ft | 26 kts | 270° |
| 2026-05-06 06:39 | 51.46479 | -0.47846 | 87 ft | 34 kts | 268° |
| 2026-05-06 06:39 | 51.46477 | -0.48258 | 88 ft | 40 kts | 270° |
| 2026-05-06 06:39 | 51.46482 | -0.48639 | 87 ft | 30 kts | 272° |
| 2026-05-06 06:40 | 51.46550 | -0.48804 | 87 ft | 9 kts | 19° |
| 2026-05-06 06:40 | 51.46616 | -0.48766 | 87 ft | 13 kts | 15° |
| 2026-05-06 06:40 | 51.46723 | -0.48748 | 86 ft | 19 kts | 1° |
| 2026-05-06 06:40 | 51.46862 | -0.48746 | 86 ft | 14 kts | 7° |
| 2026-05-06 06:41 | 51.46909 | -0.48721 | 86 ft | 6 kts | 20° |
| 2026-05-06 06:41 | 51.46929 | -0.48717 | 88 ft | 0 kts | 2° |